sensor_id;sensor_type;location;lat;lon;timestamp;P1;durP1;ratioP1;P2;durP2;ratioP2
54157;SDS011;40065;49.894;10.358;2023-03-01T00:03:18;18.13;;;8.88;;
54157;SDS011;40065;49.894;10.358;2023-03-01T00:08:20;16.92;;;8.85;;
54157;SDS011;40065;49.894;10.358;2023-03-01T00:13:22;17.75;;;8.52;;
54157;SDS011;40065;49.894;10.358;2023-03-01T00:18:23;22.05;;;10.18;;
54157;SDS011;40065;49.894;10.358;2023-03-01T00:23:25;23.35;;;10.27;;
54157;SDS011;40065;49.894;10.358;2023-03-01T00:28:28;19.55;;;9.60;;
54157;SDS011;40065;49.894;10.358;2023-03-01T00:33:29;19.40;;;8.65;;
54157;SDS011;40065;49.894;10.358;2023-03-01T00:38:34;18.20;;;9.10;;
54157;SDS011;40065;49.894;10.358;2023-03-01T00:43:41;16.85;;;8.93;;
54157;SDS011;40065;49.894;10.358;2023-03-01T00:48:43;15.50;;;7.07;;
54157;SDS011;40065;49.894;10.358;2023-03-01T00:53:45;18.27;;;8.65;;
54157;SDS011;40065;49.894;10.358;2023-03-01T00:58:48;16.45;;;8.80;;
54157;SDS011;40065;49.894;10.358;2023-03-01T01:03:51;20.55;;;9.32;;
54157;SDS011;40065;49.894;10.358;2023-03-01T01:08:58;17.67;;;8.80;;
54157;SDS011;40065;49.894;10.358;2023-03-01T01:14:00;13.82;;;7.25;;
54157;SDS011;40065;49.894;10.358;2023-03-01T01:19:03;16.35;;;8.48;;
54157;SDS011;40065;49.894;10.358;2023-03-01T01:24:05;18.85;;;9.90;;
54157;SDS011;40065;49.894;10.358;2023-03-01T01:29:08;22.17;;;10.73;;
54157;SDS011;40065;49.894;10.358;2023-03-01T01:34:15;18.27;;;9.95;;
54157;SDS011;40065;49.894;10.358;2023-03-01T01:39:20;21.98;;;10.20;;
54157;SDS011;40065;49.894;10.358;2023-03-01T01:44:23;20.33;;;9.55;;
54157;SDS011;40065;49.894;10.358;2023-03-01T01:54:30;20.98;;;9.63;;
54157;SDS011;40065;49.894;10.358;2023-03-01T01:59:43;22.42;;;10.98;;
54157;SDS011;40065;49.894;10.358;2023-03-01T02:04:50;25.20;;;10.65;;
54157;SDS011;40065;49.894;10.358;2023-03-01T02:10:11;20.48;;;9.40;;
54157;SDS011;40065;49.894;10.358;2023-03-01T02:15:14;19.88;;;11.23;;
54157;SDS011;40065;49.894;10.358;2023-03-01T02:25:24;17.38;;;9.23;;
54157;SDS011;40065;49.894;10.358;2023-03-01T02:30:42;18.58;;;9.35;;
54157;SDS011;40065;49.894;10.358;2023-03-01T02:36:10;17.35;;;8.55;;
54157;SDS011;40065;49.894;10.358;2023-03-01T02:41:18;18.75;;;9.77;;
54157;SDS011;40065;49.894;10.358;2023-03-01T02:46:22;18.70;;;9.38;;
54157;SDS011;40065;49.894;10.358;2023-03-01T02:56:45;20.13;;;9.65;;
54157;SDS011;40065;49.894;10.358;2023-03-01T03:01:52;24.23;;;11.23;;
54157;SDS011;40065;49.894;10.358;2023-03-01T03:06:54;17.55;;;8.90;;
54157;SDS011;40065;49.894;10.358;2023-03-01T03:11:56;19.02;;;9.38;;
54157;SDS011;40065;49.894;10.358;2023-03-01T03:16:58;23.30;;;10.57;;
54157;SDS011;40065;49.894;10.358;2023-03-01T03:22:00;20.45;;;10.32;;
54157;SDS011;40065;49.894;10.358;2023-03-01T03:27:06;20.52;;;10.18;;
54157;SDS011;40065;49.894;10.358;2023-03-01T03:32:08;21.95;;;9.98;;
54157;SDS011;40065;49.894;10.358;2023-03-01T03:37:10;18.27;;;9.48;;
54157;SDS011;40065;49.894;10.358;2023-03-01T03:42:32;24.50;;;11.27;;
54157;SDS011;40065;49.894;10.358;2023-03-01T03:47:34;20.80;;;10.32;;
54157;SDS011;40065;49.894;10.358;2023-03-01T03:52:35;22.40;;;11.13;;
54157;SDS011;40065;49.894;10.358;2023-03-01T03:57:38;17.25;;;9.10;;
54157;SDS011;40065;49.894;10.358;2023-03-01T04:02:43;21.00;;;9.82;;
54157;SDS011;40065;49.894;10.358;2023-03-01T04:07:46;18.10;;;9.10;;
54157;SDS011;40065;49.894;10.358;2023-03-01T04:12:48;14.90;;;7.55;;
54157;SDS011;40065;49.894;10.358;2023-03-01T04:17:51;20.70;;;9.15;;
54157;SDS011;40065;49.894;10.358;2023-03-01T04:23:01;18.27;;;9.50;;
54157;SDS011;40065;49.894;10.358;2023-03-01T04:28:14;20.73;;;10.05;;
54157;SDS011;40065;49.894;10.358;2023-03-01T04:33:17;22.05;;;10.45;;
54157;SDS011;40065;49.894;10.358;2023-03-01T04:38:20;23.67;;;9.68;;
54157;SDS011;40065;49.894;10.358;2023-03-01T04:43:22;24.23;;;11.10;;
54157;SDS011;40065;49.894;10.358;2023-03-01T04:48:24;24.20;;;11.75;;
54157;SDS011;40065;49.894;10.358;2023-03-01T04:53:26;28.27;;;10.80;;
54157;SDS011;40065;49.894;10.358;2023-03-01T04:58:28;23.45;;;11.40;;
54157;SDS011;40065;49.894;10.358;2023-03-01T05:03:30;41.40;;;17.98;;
54157;SDS011;40065;49.894;10.358;2023-03-01T05:08:32;25.30;;;11.30;;
54157;SDS011;40065;49.894;10.358;2023-03-01T05:13:35;25.80;;;12.10;;
54157;SDS011;40065;49.894;10.358;2023-03-01T05:18:39;18.70;;;9.63;;
54157;SDS011;40065;49.894;10.358;2023-03-01T05:23:42;18.27;;;9.07;;
54157;SDS011;40065;49.894;10.358;2023-03-01T05:28:44;20.90;;;9.55;;
54157;SDS011;40065;49.894;10.358;2023-03-01T05:33:46;21.85;;;11.23;;
54157;SDS011;40065;49.894;10.358;2023-03-01T05:38:48;20.63;;;10.10;;
54157;SDS011;40065;49.894;10.358;2023-03-01T05:43:49;17.20;;;8.93;;
54157;SDS011;40065;49.894;10.358;2023-03-01T05:48:51;21.58;;;10.80;;
54157;SDS011;40065;49.894;10.358;2023-03-01T05:53:53;20.92;;;10.75;;
54157;SDS011;40065;49.894;10.358;2023-03-01T05:58:55;22.40;;;10.88;;
54157;SDS011;40065;49.894;10.358;2023-03-01T06:03:56;21.27;;;11.05;;
54157;SDS011;40065;49.894;10.358;2023-03-01T06:08:58;21.67;;;11.48;;
54157;SDS011;40065;49.894;10.358;2023-03-01T06:14:00;23.42;;;11.60;;
54157;SDS011;40065;49.894;10.358;2023-03-01T06:19:02;22.35;;;10.52;;
54157;SDS011;40065;49.894;10.358;2023-03-01T06:24:04;22.00;;;11.43;;
54157;SDS011;40065;49.894;10.358;2023-03-01T06:29:09;23.40;;;11.55;;
54157;SDS011;40065;49.894;10.358;2023-03-01T06:34:11;28.83;;;14.55;;
54157;SDS011;40065;49.894;10.358;2023-03-01T06:39:14;36.25;;;17.05;;
54157;SDS011;40065;49.894;10.358;2023-03-01T06:44:17;26.05;;;13.50;;
54157;SDS011;40065;49.894;10.358;2023-03-01T06:49:20;20.75;;;9.95;;
54157;SDS011;40065;49.894;10.358;2023-03-01T06:54:22;24.13;;;12.10;;
54157;SDS011;40065;49.894;10.358;2023-03-01T06:59:24;17.55;;;9.52;;
54157;SDS011;40065;49.894;10.358;2023-03-01T07:04:26;18.98;;;9.77;;
54157;SDS011;40065;49.894;10.358;2023-03-01T07:09:29;18.97;;;10.77;;
54157;SDS011;40065;49.894;10.358;2023-03-01T07:14:31;20.88;;;11.38;;
54157;SDS011;40065;49.894;10.358;2023-03-01T07:19:33;22.38;;;12.30;;
54157;SDS011;40065;49.894;10.358;2023-03-01T07:24:35;15.95;;;8.75;;
54157;SDS011;40065;49.894;10.358;2023-03-01T07:29:37;19.77;;;11.23;;
54157;SDS011;40065;49.894;10.358;2023-03-01T07:34:38;16.70;;;10.77;;
54157;SDS011;40065;49.894;10.358;2023-03-01T07:39:40;16.58;;;10.93;;
54157;SDS011;40065;49.894;10.358;2023-03-01T07:44:42;18.85;;;12.07;;
54157;SDS011;40065;49.894;10.358;2023-03-01T07:49:44;15.43;;;10.77;;
54157;SDS011;40065;49.894;10.358;2023-03-01T07:54:46;17.10;;;11.23;;
54157;SDS011;40065;49.894;10.358;2023-03-01T07:59:47;15.50;;;10.32;;
54157;SDS011;40065;49.894;10.358;2023-03-01T08:04:49;21.90;;;12.93;;
54157;SDS011;40065;49.894;10.358;2023-03-01T08:09:51;17.08;;;11.35;;
54157;SDS011;40065;49.894;10.358;2023-03-01T08:14:53;17.13;;;11.60;;
54157;SDS011;40065;49.894;10.358;2023-03-01T08:19:55;18.20;;;11.48;;
54157;SDS011;40065;49.894;10.358;2023-03-01T08:24:56;20.67;;;12.75;;
54157;SDS011;40065;49.894;10.358;2023-03-01T08:29:58;18.58;;;11.93;;
54157;SDS011;40065;49.894;10.358;2023-03-01T08:35:00;14.07;;;10.23;;
54157;SDS011;40065;49.894;10.358;2023-03-01T08:40:02;18.90;;;11.68;;
54157;SDS011;40065;49.894;10.358;2023-03-01T08:45:09;17.92;;;11.57;;
54157;SDS011;40065;49.894;10.358;2023-03-01T08:50:11;20.65;;;11.43;;
54157;SDS011;40065;49.894;10.358;2023-03-01T08:55:13;19.33;;;11.07;;
54157;SDS011;40065;49.894;10.358;2023-03-01T09:00:17;19.00;;;12.70;;
54157;SDS011;40065;49.894;10.358;2023-03-01T09:05:20;17.63;;;11.77;;
54157;SDS011;40065;49.894;10.358;2023-03-01T09:10:23;18.50;;;12.35;;
54157;SDS011;40065;49.894;10.358;2023-03-01T09:15:25;22.08;;;12.15;;
54157;SDS011;40065;49.894;10.358;2023-03-01T09:20:26;18.90;;;13.18;;
54157;SDS011;40065;49.894;10.358;2023-03-01T09:25:28;20.30;;;12.68;;
54157;SDS011;40065;49.894;10.358;2023-03-01T09:30:30;18.65;;;12.18;;
54157;SDS011;40065;49.894;10.358;2023-03-01T09:35:32;16.67;;;11.93;;
54157;SDS011;40065;49.894;10.358;2023-03-01T09:40:33;20.73;;;12.95;;
54157;SDS011;40065;49.894;10.358;2023-03-01T09:45:38;20.92;;;12.20;;
54157;SDS011;40065;49.894;10.358;2023-03-01T09:50:45;17.83;;;11.73;;
54157;SDS011;40065;49.894;10.358;2023-03-01T10:00:56;17.13;;;11.68;;
54157;SDS011;40065;49.894;10.358;2023-03-01T10:06:05;21.20;;;12.00;;
54157;SDS011;40065;49.894;10.358;2023-03-01T10:11:35;17.42;;;10.95;;
54157;SDS011;40065;49.894;10.358;2023-03-01T10:17:02;19.27;;;11.93;;
54157;SDS011;40065;49.894;10.358;2023-03-01T10:22:47;16.48;;;10.57;;
54157;SDS011;40065;49.894;10.358;2023-03-01T10:33:16;17.75;;;11.25;;
54157;SDS011;40065;49.894;10.358;2023-03-01T10:38:21;19.83;;;11.45;;
54157;SDS011;40065;49.894;10.358;2023-03-01T10:43:24;19.75;;;12.82;;
54157;SDS011;40065;49.894;10.358;2023-03-01T10:48:28;15.10;;;9.95;;
54157;SDS011;40065;49.894;10.358;2023-03-01T11:09:14;18.92;;;12.90;;
54157;SDS011;40065;49.894;10.358;2023-03-01T11:14:23;19.20;;;11.63;;
54157;SDS011;40065;49.894;10.358;2023-03-01T11:19:28;22.52;;;12.95;;
54157;SDS011;40065;49.894;10.358;2023-03-01T11:24:33;21.83;;;13.13;;
54157;SDS011;40065;49.894;10.358;2023-03-01T11:29:56;19.98;;;10.63;;
54157;SDS011;40065;49.894;10.358;2023-03-01T11:35:20;18.48;;;11.32;;
54157;SDS011;40065;49.894;10.358;2023-03-01T11:40:31;19.67;;;11.82;;
54157;SDS011;40065;49.894;10.358;2023-03-01T11:45:52;19.23;;;11.93;;
54157;SDS011;40065;49.894;10.358;2023-03-01T12:02:15;18.42;;;11.52;;
54157;SDS011;40065;49.894;10.358;2023-03-01T12:28:51;20.35;;;12.43;;
54157;SDS011;40065;49.894;10.358;2023-03-01T12:34:07;22.00;;;13.18;;
54157;SDS011;40065;49.894;10.358;2023-03-01T12:39:23;22.67;;;13.30;;
54157;SDS011;40065;49.894;10.358;2023-03-01T12:50:37;17.95;;;11.45;;
54157;SDS011;40065;49.894;10.358;2023-03-01T12:55:42;22.48;;;12.98;;
54157;SDS011;40065;49.894;10.358;2023-03-01T13:00:45;20.45;;;12.82;;
54157;SDS011;40065;49.894;10.358;2023-03-01T13:06:18;19.25;;;11.52;;
54157;SDS011;40065;49.894;10.358;2023-03-01T13:11:44;15.98;;;10.57;;
54157;SDS011;40065;49.894;10.358;2023-03-01T13:16:45;19.08;;;11.10;;
54157;SDS011;40065;49.894;10.358;2023-03-01T13:21:51;19.10;;;10.82;;
54157;SDS011;40065;49.894;10.358;2023-03-01T13:32:26;18.67;;;11.02;;
54157;SDS011;40065;49.894;10.358;2023-03-01T13:37:44;20.10;;;12.32;;
54157;SDS011;40065;49.894;10.358;2023-03-01T13:42:47;20.48;;;11.73;;
54157;SDS011;40065;49.894;10.358;2023-03-01T13:48:20;18.98;;;11.88;;
54157;SDS011;40065;49.894;10.358;2023-03-01T13:53:25;16.33;;;10.68;;
54157;SDS011;40065;49.894;10.358;2023-03-01T13:58:30;24.48;;;13.43;;
54157;SDS011;40065;49.894;10.358;2023-03-01T14:03:39;18.13;;;11.02;;
54157;SDS011;40065;49.894;10.358;2023-03-01T14:08:43;19.65;;;11.88;;
54157;SDS011;40065;49.894;10.358;2023-03-01T14:19:25;17.20;;;10.63;;
54157;SDS011;40065;49.894;10.358;2023-03-01T14:24:34;15.35;;;9.93;;
54157;SDS011;40065;49.894;10.358;2023-03-01T14:29:41;18.50;;;10.60;;
54157;SDS011;40065;49.894;10.358;2023-03-01T14:34:44;15.02;;;9.75;;
54157;SDS011;40065;49.894;10.358;2023-03-01T14:44:50;16.50;;;9.32;;
54157;SDS011;40065;49.894;10.358;2023-03-01T14:49:56;15.32;;;8.70;;
54157;SDS011;40065;49.894;10.358;2023-03-01T14:55:00;14.88;;;8.32;;
54157;SDS011;40065;49.894;10.358;2023-03-01T15:00:06;15.13;;;9.32;;
54157;SDS011;40065;49.894;10.358;2023-03-01T15:05:09;12.65;;;7.90;;
54157;SDS011;40065;49.894;10.358;2023-03-01T15:10:17;14.20;;;8.68;;
54157;SDS011;40065;49.894;10.358;2023-03-01T15:20:31;13.20;;;8.60;;
54157;SDS011;40065;49.894;10.358;2023-03-01T15:25:37;14.93;;;8.48;;
54157;SDS011;40065;49.894;10.358;2023-03-01T15:30:39;12.50;;;8.13;;
54157;SDS011;40065;49.894;10.358;2023-03-01T15:35:42;19.05;;;9.73;;
54157;SDS011;40065;49.894;10.358;2023-03-01T15:40:49;19.95;;;9.90;;
54157;SDS011;40065;49.894;10.358;2023-03-01T15:45:57;15.00;;;9.70;;
54157;SDS011;40065;49.894;10.358;2023-03-01T15:50:59;13.85;;;8.27;;
54157;SDS011;40065;49.894;10.358;2023-03-01T15:56:02;15.98;;;9.75;;
54157;SDS011;40065;49.894;10.358;2023-03-01T16:01:08;16.10;;;9.57;;
54157;SDS011;40065;49.894;10.358;2023-03-01T16:06:14;16.98;;;10.38;;
54157;SDS011;40065;49.894;10.358;2023-03-01T16:11:17;16.60;;;10.90;;
54157;SDS011;40065;49.894;10.358;2023-03-01T16:16:20;16.40;;;10.00;;
54157;SDS011;40065;49.894;10.358;2023-03-01T16:21:23;18.08;;;10.35;;
54157;SDS011;40065;49.894;10.358;2023-03-01T16:26:26;21.40;;;12.53;;
54157;SDS011;40065;49.894;10.358;2023-03-01T16:31:28;23.08;;;11.98;;
54157;SDS011;40065;49.894;10.358;2023-03-01T16:36:31;18.58;;;10.93;;
54157;SDS011;40065;49.894;10.358;2023-03-01T16:41:32;21.73;;;12.50;;
54157;SDS011;40065;49.894;10.358;2023-03-01T16:46:34;25.50;;;12.98;;
54157;SDS011;40065;49.894;10.358;2023-03-01T16:51:36;25.10;;;13.80;;
54157;SDS011;40065;49.894;10.358;2023-03-01T16:56:38;25.80;;;12.93;;
54157;SDS011;40065;49.894;10.358;2023-03-01T17:01:40;22.73;;;11.10;;
54157;SDS011;40065;49.894;10.358;2023-03-01T17:06:42;18.60;;;10.95;;
54157;SDS011;40065;49.894;10.358;2023-03-01T17:11:44;24.55;;;12.50;;
54157;SDS011;40065;49.894;10.358;2023-03-01T17:16:46;33.00;;;17.42;;
54157;SDS011;40065;49.894;10.358;2023-03-01T17:21:48;24.38;;;13.25;;
54157;SDS011;40065;49.894;10.358;2023-03-01T17:26:50;25.77;;;13.77;;
54157;SDS011;40065;49.894;10.358;2023-03-01T17:31:52;27.60;;;16.23;;
54157;SDS011;40065;49.894;10.358;2023-03-01T17:36:56;22.98;;;13.07;;
54157;SDS011;40065;49.894;10.358;2023-03-01T17:41:57;28.60;;;14.45;;
54157;SDS011;40065;49.894;10.358;2023-03-01T17:47:00;27.42;;;16.58;;
54157;SDS011;40065;49.894;10.358;2023-03-01T17:52:03;27.50;;;16.17;;
54157;SDS011;40065;49.894;10.358;2023-03-01T17:57:05;25.88;;;15.07;;
54157;SDS011;40065;49.894;10.358;2023-03-01T18:02:09;24.05;;;13.40;;
54157;SDS011;40065;49.894;10.358;2023-03-01T18:07:13;25.25;;;13.65;;
54157;SDS011;40065;49.894;10.358;2023-03-01T18:12:15;28.85;;;15.00;;
54157;SDS011;40065;49.894;10.358;2023-03-01T18:17:17;26.30;;;13.88;;
54157;SDS011;40065;49.894;10.358;2023-03-01T18:22:24;28.77;;;15.10;;
54157;SDS011;40065;49.894;10.358;2023-03-01T18:27:26;24.73;;;12.82;;
54157;SDS011;40065;49.894;10.358;2023-03-01T18:32:28;22.65;;;12.57;;
54157;SDS011;40065;49.894;10.358;2023-03-01T18:37:30;25.42;;;13.73;;
54157;SDS011;40065;49.894;10.358;2023-03-01T18:42:31;26.13;;;13.60;;
54157;SDS011;40065;49.894;10.358;2023-03-01T18:47:33;28.85;;;13.50;;
54157;SDS011;40065;49.894;10.358;2023-03-01T18:52:35;27.15;;;15.38;;
54157;SDS011;40065;49.894;10.358;2023-03-01T18:57:37;25.63;;;13.80;;
54157;SDS011;40065;49.894;10.358;2023-03-01T19:02:38;27.15;;;13.95;;
54157;SDS011;40065;49.894;10.358;2023-03-01T19:07:40;23.92;;;13.25;;
54157;SDS011;40065;49.894;10.358;2023-03-01T19:12:42;25.08;;;13.80;;
54157;SDS011;40065;49.894;10.358;2023-03-01T19:17:44;32.47;;;15.25;;
54157;SDS011;40065;49.894;10.358;2023-03-01T19:22:46;28.73;;;14.70;;
54157;SDS011;40065;49.894;10.358;2023-03-01T19:27:47;27.55;;;14.23;;
54157;SDS011;40065;49.894;10.358;2023-03-01T19:32:49;26.65;;;14.93;;
54157;SDS011;40065;49.894;10.358;2023-03-01T19:37:52;29.35;;;15.63;;
54157;SDS011;40065;49.894;10.358;2023-03-01T19:42:54;32.17;;;16.58;;
54157;SDS011;40065;49.894;10.358;2023-03-01T19:47:56;34.47;;;17.08;;
54157;SDS011;40065;49.894;10.358;2023-03-01T19:52:58;27.40;;;14.43;;
54157;SDS011;40065;49.894;10.358;2023-03-01T19:58:00;33.97;;;16.30;;
54157;SDS011;40065;49.894;10.358;2023-03-01T20:03:02;33.35;;;16.10;;
54157;SDS011;40065;49.894;10.358;2023-03-01T20:08:04;30.75;;;16.38;;
54157;SDS011;40065;49.894;10.358;2023-03-01T20:13:06;30.88;;;15.30;;
54157;SDS011;40065;49.894;10.358;2023-03-01T20:18:09;34.30;;;16.42;;
54157;SDS011;40065;49.894;10.358;2023-03-01T20:23:11;32.33;;;16.45;;
54157;SDS011;40065;49.894;10.358;2023-03-01T20:28:13;34.95;;;16.08;;
54157;SDS011;40065;49.894;10.358;2023-03-01T20:33:16;30.48;;;15.13;;
54157;SDS011;40065;49.894;10.358;2023-03-01T20:38:18;32.45;;;16.27;;
54157;SDS011;40065;49.894;10.358;2023-03-01T20:43:20;32.05;;;16.25;;
54157;SDS011;40065;49.894;10.358;2023-03-01T20:48:22;30.33;;;15.95;;
54157;SDS011;40065;49.894;10.358;2023-03-01T20:53:25;31.70;;;16.13;;
54157;SDS011;40065;49.894;10.358;2023-03-01T20:58:27;34.90;;;16.73;;
54157;SDS011;40065;49.894;10.358;2023-03-01T21:03:32;35.65;;;16.25;;
54157;SDS011;40065;49.894;10.358;2023-03-01T21:08:35;30.35;;;16.63;;
54157;SDS011;40065;49.894;10.358;2023-03-01T21:13:37;35.90;;;17.63;;
54157;SDS011;40065;49.894;10.358;2023-03-01T21:18:39;37.58;;;17.40;;
54157;SDS011;40065;49.894;10.358;2023-03-01T21:23:42;39.25;;;18.50;;
54157;SDS011;40065;49.894;10.358;2023-03-01T21:28:45;30.00;;;15.15;;
54157;SDS011;40065;49.894;10.358;2023-03-01T21:33:49;27.90;;;13.45;;
54157;SDS011;40065;49.894;10.358;2023-03-01T21:38:52;25.38;;;13.27;;
54157;SDS011;40065;49.894;10.358;2023-03-01T21:43:55;29.20;;;15.32;;
54157;SDS011;40065;49.894;10.358;2023-03-01T21:48:59;34.05;;;17.95;;
54157;SDS011;40065;49.894;10.358;2023-03-01T21:54:03;31.88;;;15.70;;
54157;SDS011;40065;49.894;10.358;2023-03-01T21:59:07;34.03;;;15.95;;
54157;SDS011;40065;49.894;10.358;2023-03-01T22:04:13;28.33;;;14.30;;
54157;SDS011;40065;49.894;10.358;2023-03-01T22:09:20;28.88;;;15.40;;
54157;SDS011;40065;49.894;10.358;2023-03-01T22:14:23;22.55;;;11.43;;
54157;SDS011;40065;49.894;10.358;2023-03-01T22:19:25;25.40;;;12.68;;
54157;SDS011;40065;49.894;10.358;2023-03-01T22:24:28;27.35;;;13.35;;
54157;SDS011;40065;49.894;10.358;2023-03-01T22:29:30;22.10;;;11.10;;
54157;SDS011;40065;49.894;10.358;2023-03-01T22:34:32;28.67;;;13.40;;
54157;SDS011;40065;49.894;10.358;2023-03-01T22:39:36;31.60;;;14.68;;
54157;SDS011;40065;49.894;10.358;2023-03-01T22:44:37;29.17;;;13.05;;
54157;SDS011;40065;49.894;10.358;2023-03-01T22:49:39;31.40;;;14.68;;
54157;SDS011;40065;49.894;10.358;2023-03-01T22:54:41;33.00;;;15.63;;
54157;SDS011;40065;49.894;10.358;2023-03-01T22:59:43;29.60;;;14.77;;
54157;SDS011;40065;49.894;10.358;2023-03-01T23:04:44;31.08;;;13.98;;
54157;SDS011;40065;49.894;10.358;2023-03-01T23:09:48;27.10;;;13.30;;
54157;SDS011;40065;49.894;10.358;2023-03-01T23:14:51;33.67;;;14.70;;
54157;SDS011;40065;49.894;10.358;2023-03-01T23:19:53;28.23;;;15.07;;
54157;SDS011;40065;49.894;10.358;2023-03-01T23:24:54;28.42;;;13.85;;
54157;SDS011;40065;49.894;10.358;2023-03-01T23:29:56;22.42;;;11.70;;
54157;SDS011;40065;49.894;10.358;2023-03-01T23:34:58;27.33;;;13.48;;
54157;SDS011;40065;49.894;10.358;2023-03-01T23:40:00;29.60;;;14.90;;
54157;SDS011;40065;49.894;10.358;2023-03-01T23:45:02;26.60;;;13.23;;
54157;SDS011;40065;49.894;10.358;2023-03-01T23:50:04;26.35;;;12.63;;
54157;SDS011;40065;49.894;10.358;2023-03-01T23:55:07;26.77;;;13.68;;
